createdAt,value
2023-02-27T00:00:03.956Z,93.71
2023-02-27T00:02:32.175Z,93.41
2023-02-27T00:05:00.920Z,92.63
2023-02-27T00:07:28.792Z,92.18
2023-02-27T00:09:56.256Z,91.41
2023-02-27T00:12:23.684Z,92.37
2023-02-27T00:14:51.348Z,93.33
2023-02-27T00:17:18.783Z,92.46
2023-02-27T00:19:46.278Z,93.48
2023-02-27T00:22:15.006Z,93.91
2023-02-27T00:24:42.418Z,94.35
2023-02-27T00:27:09.852Z,94.82
2023-02-27T00:29:38.671Z,94.63
2023-02-27T00:32:06.220Z,94.47
2023-02-27T00:34:33.702Z,94.00
2023-02-27T00:37:01.185Z,94.09
2023-02-27T00:39:30.512Z,94.33
2023-02-27T00:41:58.174Z,94.18
2023-02-27T00:47:28.107Z,94.63
2023-02-27T00:49:55.547Z,96.06
2023-02-27T00:52:23.043Z,94.82
2023-02-27T00:54:51.892Z,94.85
2023-02-27T01:00:18.568Z,93.88
2023-02-27T01:02:46.056Z,93.43
2023-02-27T01:05:14.355Z,93.53
2023-02-27T01:07:41.838Z,92.47
2023-02-27T01:10:13.219Z,91.96
2023-02-27T01:12:40.933Z,92.39
2023-02-27T01:15:09.983Z,91.48
2023-02-27T01:20:35.349Z,90.99
2023-02-27T01:25:52.369Z,91.48
2023-02-27T01:28:19.856Z,91.52
2023-02-27T01:30:47.348Z,92.97
2023-02-27T01:36:09.520Z,95.91
2023-02-27T01:41:40.360Z,95.91
2023-02-27T01:44:09.398Z,95.05
2023-02-27T01:46:38.946Z,94.44
2023-02-27T01:49:10.881Z,94.74
2023-02-27T01:54:39.474Z,96.21
2023-02-27T01:57:08.740Z,96.61
2023-02-27T02:02:29.479Z,94.81
2023-02-27T02:04:57.408Z,93.74
2023-02-27T02:07:26.511Z,93.31
2023-02-27T02:09:56.419Z,93.07
2023-02-27T02:15:13.423Z,93.77
2023-02-27T02:17:48.007Z,96.18
2023-02-27T02:20:50.528Z,95.29
2023-02-27T02:23:51.988Z,94.46
2023-02-27T02:27:03.121Z,94.65
2023-02-27T02:30:14.818Z,94.94
2023-02-27T02:33:17.894Z,95.51
2023-02-27T02:36:24.035Z,96.70
2023-02-27T02:39:38.788Z,96.81
2023-02-27T02:42:15.647Z,96.55
2023-02-27T02:44:50.406Z,97.03
2023-02-27T02:47:24.223Z,96.16
2023-02-27T02:52:47.522Z,94.46
2023-02-27T02:55:20.061Z,94.98
2023-02-27T02:57:53.754Z,96.11
2023-02-27T03:00:37.682Z,95.12
2023-02-27T03:03:09.962Z,94.58
2023-02-27T03:08:41.934Z,95.45
2023-02-27T03:11:10.810Z,95.63
2023-02-27T03:13:41.646Z,94.68
2023-02-27T03:16:14.237Z,94.79
2023-02-27T03:18:46.328Z,93.99
2023-02-27T03:21:16.824Z,94.49
2023-02-27T03:26:37.665Z,94.75
2023-02-27T03:29:08.569Z,94.42
2023-02-27T03:31:41.103Z,94.26
2023-02-27T03:34:14.376Z,93.36
2023-02-27T03:36:47.147Z,93.88
2023-02-27T03:39:24.554Z,93.46
2023-02-27T03:41:56.218Z,93.09
2023-02-27T03:44:52.978Z,92.21
2023-02-27T03:50:23.172Z,93.92
2023-02-27T03:52:50.922Z,93.53
2023-02-27T03:55:20.585Z,93.13
2023-02-27T03:57:50.840Z,93.15
2023-02-27T04:03:22.035Z,92.08
2023-02-27T04:05:50.687Z,91.78
2023-02-27T04:08:36.951Z,91.35
2023-02-27T04:11:20.255Z,91.69
2023-02-27T04:13:56.071Z,93.35
2023-02-27T04:16:36.404Z,92.85
2023-02-27T04:19:16.529Z,91.68
2023-02-27T04:21:51.018Z,91.36
2023-02-27T04:24:28.715Z,92.24
2023-02-27T04:26:59.013Z,93.16
2023-02-27T04:29:34.052Z,94.27
2023-02-27T04:32:05.546Z,94.57
2023-02-27T04:37:35.981Z,94.14
2023-02-27T04:40:06.439Z,92.85
2023-02-27T04:42:36.020Z,92.75
2023-02-27T04:45:08.285Z,92.94
2023-02-27T04:47:39.739Z,92.67
2023-02-27T04:53:14.541Z,94.49
2023-02-27T04:55:46.185Z,96.60
2023-02-27T04:58:15.365Z,98.25
2023-02-27T05:00:47.130Z,98.62
2023-02-27T05:06:18.884Z,98.16
2023-02-27T05:08:51.892Z,96.76
2023-02-27T05:11:24.005Z,96.21
2023-02-27T05:13:55.541Z,97.10
2023-02-27T05:19:23.742Z,96.68
2023-02-27T05:21:56.335Z,95.96
2023-02-27T05:24:31.341Z,95.40
2023-02-27T05:27:09.971Z,94.53
2023-02-27T05:29:43.722Z,94.58
2023-02-27T05:32:17.237Z,94.09
2023-02-27T05:37:46.446Z,93.30
2023-02-27T05:40:18.077Z,92.80
2023-02-27T05:42:49.999Z,92.47
2023-02-27T05:45:20.563Z,92.21
2023-02-27T05:50:53.532Z,91.23
2023-02-27T05:53:23.499Z,91.38
2023-02-27T05:55:53.118Z,91.29
2023-02-27T05:58:24.813Z,92.12
2023-02-27T06:00:55.141Z,92.49
2023-02-27T06:06:27.096Z,94.58
2023-02-27T06:08:56.016Z,95.67
2023-02-27T06:11:23.461Z,95.34
2023-02-27T06:13:50.855Z,94.51
2023-02-27T06:16:18.372Z,93.94
2023-02-27T06:18:45.854Z,93.73
2023-02-27T06:21:17.055Z,94.31
2023-02-27T06:23:44.762Z,95.08
2023-02-27T06:26:14.216Z,94.91
2023-02-27T06:28:42.217Z,94.08
2023-02-27T06:31:09.683Z,93.92
2023-02-27T06:33:37.285Z,92.89
2023-02-27T06:36:05.053Z,94.00
2023-02-27T06:38:33.062Z,95.19
2023-02-27T06:41:00.590Z,95.65
2023-02-27T06:46:31.074Z,98.67
2023-02-27T06:51:57.046Z,97.18
2023-02-27T06:54:24.614Z,96.39
2023-02-27T06:56:52.156Z,94.38
2023-02-27T06:59:19.584Z,92.81
2023-02-27T07:01:49.021Z,91.98
2023-02-27T07:04:17.015Z,91.98
2023-02-27T07:07:34.353Z,92.09
2023-02-27T07:12:20.997Z,94.48
2023-02-27T07:14:48.404Z,94.72
2023-02-27T07:20:18.647Z,91.25
2023-02-27T07:22:46.170Z,92.53
2023-02-27T07:25:13.820Z,93.35
2023-02-27T07:27:41.270Z,96.59
2023-02-27T07:32:57.061Z,94.72
2023-02-27T07:35:25.965Z,91.92
2023-02-27T07:37:53.448Z,89.21
2023-02-27T07:40:21.063Z,85.74
2023-02-27T07:45:47.052Z,83.65
2023-02-27T07:48:14.858Z,83.78
2023-02-27T07:50:43.644Z,85.18
2023-02-27T07:53:12.682Z,84.85
2023-02-27T07:55:40.258Z,85.06
2023-02-27T07:58:07.695Z,84.45
2023-02-27T08:00:35.158Z,87.36
2023-02-27T08:03:02.666Z,87.63
2023-02-27T08:05:30.156Z,87.69
2023-02-27T08:07:59.094Z,85.67
2023-02-27T08:10:26.578Z,84.50
2023-02-27T08:15:54.092Z,82.77
2023-02-27T08:18:21.588Z,79.88
2023-02-27T08:20:49.265Z,80.10
2023-02-27T08:23:18.043Z,79.18
2023-02-27T08:25:45.578Z,81.05
2023-02-27T08:31:16.256Z,80.41
2023-02-27T08:33:43.840Z,81.83
2023-02-27T08:36:11.343Z,80.28
2023-02-27T08:38:40.106Z,79.86
2023-02-27T08:41:07.556Z,79.11
2023-02-27T08:43:35.006Z,78.10
2023-02-27T08:46:02.468Z,77.33
2023-02-27T08:51:25.703Z,75.53
2023-02-27T08:56:57.306Z,76.65
2023-02-27T08:59:38.642Z,76.30
2023-02-27T09:02:33.710Z,74.86
2023-02-27T09:05:21.634Z,73.33
2023-02-27T09:08:09.651Z,73.59
2023-02-27T09:10:57.668Z,73.33
2023-02-27T09:16:45.773Z,72.19
2023-02-27T09:19:33.643Z,72.75
2023-02-27T09:22:14.748Z,70.65
2023-02-27T09:43:39.679Z,69.26
2023-02-27T09:52:33.640Z,69.32
2023-02-27T09:55:01.229Z,67.42
2023-02-27T09:57:43.717Z,66.01
2023-02-27T10:00:45.728Z,68.06
2023-02-27T10:03:49.645Z,68.44
2023-02-27T10:06:26.832Z,69.48
2023-02-27T10:09:19.656Z,67.68
2023-02-27T10:12:27.644Z,67.57
2023-02-27T10:15:06.639Z,67.03
2023-02-27T10:17:37.716Z,66.37
2023-02-27T10:20:10.620Z,67.03
2023-02-27T10:22:41.899Z,64.42
2023-02-27T10:25:29.830Z,64.22
2023-02-27T10:28:03.563Z,63.99
2023-02-27T10:33:56.661Z,65.73
2023-02-27T10:36:34.545Z,66.25
2023-02-27T10:39:06.565Z,66.21
2023-02-27T10:44:36.992Z,68.14
2023-02-27T10:47:17.660Z,67.90
2023-02-27T10:50:00.290Z,69.30
2023-02-27T10:52:47.665Z,65.65
2023-02-27T10:58:55.624Z,62.20
2023-02-27T11:04:54.693Z,62.51
2023-02-27T11:07:44.633Z,61.84
2023-02-27T11:10:34.673Z,59.52
2023-02-27T11:47:55.210Z,59.66
2023-02-27T12:09:40.876Z,58.42
2023-02-27T12:27:15.425Z,58.60
2023-02-27T12:29:46.590Z,58.42
2023-02-27T12:32:18.639Z,54.52
2023-02-27T12:34:49.366Z,55.64
2023-02-27T12:37:22.687Z,55.77
2023-02-27T12:39:50.139Z,56.47
2023-02-27T12:42:49.683Z,57.11
2023-02-27T12:45:29.459Z,58.08
2023-02-27T12:48:06.375Z,58.42
2023-02-27T12:50:44.444Z,59.98
2023-02-27T12:53:25.302Z,59.12
2023-02-27T12:55:56.181Z,59.08
2023-02-27T12:58:34.689Z,59.75
2023-02-27T13:01:03.754Z,58.95
2023-02-27T13:03:35.478Z,59.05
2023-02-27T13:06:07.992Z,58.81
2023-02-27T13:11:26.730Z,58.33
2023-02-27T13:13:59.524Z,58.08
2023-02-27T13:16:30.953Z,55.95
2023-02-27T13:19:02.444Z,57.26
2023-02-27T13:21:32.730Z,57.90
2023-02-27T13:24:13.236Z,59.57
2023-02-27T13:26:46.644Z,59.85
2023-02-27T13:29:17.556Z,61.01
2023-02-27T13:31:50.847Z,62.32
2023-02-27T13:34:23.138Z,61.32
2023-02-27T13:36:52.735Z,59.18
2023-02-27T13:39:52.489Z,56.13
2023-02-27T13:43:01.851Z,57.04
2023-02-27T13:45:31.892Z,54.90
2023-02-27T13:48:00.836Z,56.87
2023-02-27T13:50:53.310Z,57.38
2023-02-27T13:56:22.853Z,55.64
2023-02-27T13:58:51.386Z,53.89
2023-02-27T14:01:24.538Z,53.98
2023-02-27T14:03:59.374Z,53.29
2023-02-27T14:06:29.455Z,52.51
2023-02-27T14:09:12.901Z,50.92
2023-02-27T14:11:53.302Z,50.48
2023-02-27T14:17:44.678Z,48.97
2023-02-27T14:23:21.673Z,47.35
2023-02-27T14:25:52.936Z,48.07
2023-02-27T14:28:26.083Z,48.07
2023-02-27T14:30:55.449Z,47.01
2023-02-27T14:33:39.191Z,48.68
2023-02-27T14:36:09.873Z,51.56
2023-02-27T14:41:41.792Z,49.56
2023-02-27T14:44:19.294Z,50.69
2023-02-27T14:46:47.075Z,51.39
2023-02-27T14:49:20.136Z,51.09
2023-02-27T14:54:45.028Z,50.78
2023-02-27T14:57:17.978Z,49.48
2023-02-27T14:59:46.939Z,49.90
2023-02-27T15:02:19.759Z,51.27
2023-02-27T15:04:47.498Z,51.85
2023-02-27T15:10:25.213Z,53.39
2023-02-27T15:12:53.998Z,54.60
2023-02-27T15:15:22.192Z,54.37
2023-02-27T15:20:58.313Z,55.93
2023-02-27T15:23:27.367Z,54.99
2023-02-27T15:25:56.699Z,55.60
2023-02-27T15:28:28.529Z,57.09
2023-02-27T15:30:57.310Z,57.08
2023-02-27T15:33:29.130Z,57.17
2023-02-27T15:35:57.280Z,58.67
2023-02-27T15:41:28.797Z,59.31
2023-02-27T15:47:00.396Z,59.56
2023-02-27T15:49:27.861Z,60.51
2023-02-27T15:52:00.566Z,61.79
2023-02-27T15:54:32.817Z,61.02
2023-02-27T15:57:00.713Z,60.51
2023-02-27T15:59:29.561Z,59.96
2023-02-27T16:01:57.001Z,59.31
2023-02-27T16:07:22.388Z,60.40
2023-02-27T16:09:52.056Z,60.46
2023-02-27T16:12:28.801Z,60.48
2023-02-27T16:15:18.370Z,61.66
2023-02-27T16:17:54.406Z,62.25
2023-02-27T16:20:37.722Z,62.37
2023-02-27T16:23:15.736Z,61.59
2023-02-27T16:25:47.588Z,61.76
2023-02-27T16:28:15.879Z,61.90
2023-02-27T16:33:42.639Z,61.72
2023-02-27T16:36:18.526Z,62.18
2023-02-27T16:38:47.911Z,62.72
2023-02-27T16:41:16.788Z,62.08
2023-02-27T16:43:46.141Z,62.82
2023-02-27T16:46:16.525Z,62.88
2023-02-27T16:48:44.095Z,63.65
2023-02-27T16:51:17.471Z,63.36
2023-02-27T16:56:38.513Z,62.93
2023-02-27T16:59:06.480Z,64.65
2023-02-27T17:01:34.533Z,63.86
2023-02-27T17:04:02.533Z,65.30
2023-02-27T17:09:19.010Z,67.09
2023-02-27T17:11:47.815Z,68.80
2023-02-27T17:14:16.046Z,68.92
2023-02-27T17:16:43.536Z,70.48
2023-02-27T17:19:11.051Z,71.72
2023-02-27T17:21:38.489Z,72.51
2023-02-27T17:24:06.956Z,71.41
2023-02-27T17:26:34.657Z,71.76
2023-02-27T17:29:05.115Z,73.63
2023-02-27T17:31:32.890Z,72.68
2023-02-27T17:34:02.958Z,72.65
2023-02-27T17:36:30.757Z,72.72
2023-02-27T17:39:00.524Z,71.87
2023-02-27T17:41:28.689Z,71.95
2023-02-27T17:43:57.452Z,71.90
2023-02-27T17:46:28.060Z,72.16
2023-02-27T17:51:52.534Z,72.16
2023-02-27T17:54:19.991Z,71.81
2023-02-27T17:56:47.431Z,71.35
2023-02-27T17:59:14.866Z,72.55
2023-02-27T18:01:43.685Z,71.39
2023-02-27T18:04:12.626Z,72.09
2023-02-27T18:06:40.228Z,71.96
2023-02-27T18:09:07.657Z,73.20
2023-02-27T18:14:36.275Z,75.39
2023-02-27T18:17:06.680Z,74.34
2023-02-27T18:19:34.110Z,74.37
2023-02-27T18:22:01.548Z,74.38
2023-02-27T18:24:28.961Z,74.60
2023-02-27T18:26:56.497Z,75.51
2023-02-27T18:29:23.976Z,75.26
2023-02-27T18:31:53.546Z,76.28
2023-02-27T18:34:22.897Z,76.67
2023-02-27T18:36:51.737Z,77.46
2023-02-27T18:42:22.134Z,77.29
2023-02-27T18:44:49.692Z,76.36
2023-02-27T18:47:17.266Z,75.79
2023-02-27T18:49:46.034Z,75.88
2023-02-27T18:55:08.222Z,76.24
2023-02-27T19:00:37.946Z,79.89
2023-02-27T19:03:06.190Z,81.19
2023-02-27T19:05:40.757Z,79.69
2023-02-27T19:08:08.211Z,79.91
2023-02-27T19:13:34.058Z,78.61
2023-02-27T19:16:05.499Z,79.65
2023-02-27T19:18:32.979Z,80.53
2023-02-27T19:21:04.901Z,79.70
2023-02-27T19:23:32.389Z,78.50
2023-02-27T19:25:59.986Z,78.45
2023-02-27T19:28:27.579Z,79.39
2023-02-27T19:30:55.091Z,80.11
2023-02-27T19:33:22.556Z,80.93
2023-02-27T19:35:50.089Z,84.82
2023-02-27T19:38:18.867Z,83.84
2023-02-27T19:40:46.336Z,83.74
2023-02-27T19:43:15.177Z,82.39
2023-02-27T19:45:42.756Z,82.80
2023-02-27T19:50:58.984Z,82.60
2023-02-27T19:53:27.916Z,82.53
2023-02-27T19:55:59.230Z,82.44
2023-02-27T19:58:26.669Z,81.75
2023-02-27T20:00:54.222Z,81.98
2023-02-27T20:03:21.867Z,82.11
2023-02-27T20:05:49.312Z,81.51
2023-02-27T20:08:17.885Z,83.51
2023-02-27T20:10:55.672Z,83.37
2023-02-27T20:13:23.138Z,83.43
2023-02-27T20:15:56.815Z,82.88
2023-02-27T20:18:24.630Z,82.44
2023-02-27T20:20:59.794Z,82.66
2023-02-27T20:26:33.286Z,82.62
2023-02-27T20:29:03.105Z,81.88
2023-02-27T20:31:33.111Z,82.33
2023-02-27T20:34:01.131Z,81.87
2023-02-27T20:36:29.141Z,82.11
2023-02-27T20:38:56.684Z,81.55
2023-02-27T20:41:27.556Z,81.70
2023-02-27T20:43:58.476Z,81.38
2023-02-27T20:46:28.451Z,81.39
2023-02-27T20:48:57.417Z,81.65
2023-02-27T20:51:26.699Z,81.81
2023-02-27T20:53:56.350Z,82.30
2023-02-27T20:56:25.500Z,83.45
2023-02-27T20:58:53.124Z,83.56
2023-02-27T21:04:10.506Z,84.80
2023-02-27T21:06:38.013Z,84.77
2023-02-27T21:09:06.990Z,84.71
2023-02-27T21:11:34.876Z,83.91
2023-02-27T21:14:05.532Z,83.38
2023-02-27T21:16:33.503Z,83.48
2023-02-27T21:21:51.310Z,84.80
2023-02-27T21:24:18.787Z,85.13
2023-02-27T21:26:46.235Z,87.49
2023-02-27T21:29:14.954Z,88.74
2023-02-27T21:31:45.039Z,88.24
2023-02-27T21:37:10.477Z,87.34
2023-02-27T21:42:40.991Z,87.45
2023-02-27T21:45:09.444Z,87.29
2023-02-27T21:47:36.865Z,87.83
2023-02-27T21:50:13.977Z,88.30
2023-02-27T21:52:43.548Z,88.31
2023-02-27T21:55:12.031Z,88.23
2023-02-27T21:57:40.547Z,88.53
2023-02-27T22:00:12.167Z,89.22
2023-02-27T22:05:35.982Z,87.89
2023-02-27T22:08:05.110Z,87.73
2023-02-27T22:10:35.907Z,87.73
2023-02-27T22:13:03.413Z,88.26
2023-02-27T22:15:30.861Z,88.04
2023-02-27T22:17:58.299Z,88.64
2023-02-27T22:23:17.777Z,90.00
2023-02-27T22:28:48.193Z,90.70
2023-02-27T22:31:19.975Z,90.47
2023-02-27T22:33:52.472Z,90.59
2023-02-27T22:36:33.732Z,90.50
2023-02-27T22:39:02.709Z,90.48
2023-02-27T22:44:32.949Z,90.59
2023-02-27T22:47:00.363Z,90.54
2023-02-27T22:49:27.877Z,90.78
2023-02-27T22:51:55.376Z,89.77
2023-02-27T22:54:24.309Z,89.88
2023-02-27T22:56:53.079Z,90.00
2023-02-27T22:59:20.615Z,90.46
2023-02-27T23:01:48.937Z,90.99
2023-02-27T23:07:04.965Z,90.89
2023-02-27T23:09:33.741Z,91.44
2023-02-27T23:12:03.494Z,92.87
2023-02-27T23:17:22.008Z,94.26
2023-02-27T23:19:49.738Z,92.51
2023-02-27T23:22:17.428Z,92.02
2023-02-27T23:24:47.147Z,90.90
2023-02-27T23:27:25.494Z,90.85
2023-02-27T23:29:53.799Z,90.87
2023-02-27T23:32:21.397Z,91.18
2023-02-27T23:34:49.925Z,90.86
2023-02-27T23:37:17.463Z,90.26
2023-02-27T23:43:02.780Z,92.76
2023-02-27T23:45:31.680Z,95.45
2023-02-27T23:48:01.045Z,96.31
2023-02-27T23:50:30.451Z,94.50
2023-02-27T23:52:59.058Z,94.08
2023-02-27T23:55:27.409Z,93.29
2023-02-27T23:57:57.624Z,93.22
